Time;durP1;ratioP1;P1;durP2;ratioP2;P2;SDS_P1;SDS_P2;PMS_P1;PMS_P2;Temp;Humidity;BMP_temperature;BMP_pressure;BME280_temperature;BME280_humidity;BME280_pressure;Samples;Min_cycle;Max_cycle;Signal;HPM_P1;HPM_P2
2020/12/25 00:01:27;;;;;;;3.33;1.08;;;7.30;78.90;;;;;;5091798;28;20024;-63
2020/12/25 00:03:53;;;;;;;5.50;1.42;;;7.30;78.70;;;;;;5096333;28;20028;-63
2020/12/25 00:06:19;;;;;;;7.78;1.38;;;7.20;78.90;;;;;;5081532;28;20028;-63
2020/12/25 00:08:45;;;;;;;7.32;1.40;;;7.20;78.80;;;;;;5095473;28;20053;-63
2020/12/25 00:11:11;;;;;;;7.85;1.50;;;7.20;78.50;;;;;;5095913;28;20085;-63
2020/12/25 00:13:36;;;;;;;16.52;1.88;;;7.20;78.50;;;;;;5095860;28;20463;-63
2020/12/25 00:16:02;;;;;;;6.95;1.33;;;7.20;78.30;;;;;;5095204;28;20032;-62
2020/12/25 00:18:28;;;;;;;10.50;1.70;;;7.20;78.20;;;;;;5081615;28;20082;-62
2020/12/25 00:20:54;;;;;;;17.73;1.40;;;7.20;78.10;;;;;;5096003;28;20086;-62
2020/12/25 00:23:20;;;;;;;13.20;1.45;;;7.20;78.30;;;;;;5094895;28;20032;-63
2020/12/25 00:25:46;;;;;;;11.77;1.52;;;7.20;78.30;;;;;;5095705;28;20364;-63
2020/12/25 00:28:12;;;;;;;8.18;1.60;;;7.20;78.20;;;;;;5095717;28;20495;-62
2020/12/25 00:30:42;;;;;;;3.05;1.20;;;7.20;78.10;;;;;;5094690;28;20059;-63
2020/12/25 00:33:07;;;;;;;6.82;1.40;;;7.30;78.10;;;;;;5095438;28;20483;-62
2020/12/25 00:35:33;;;;;;;10.73;1.23;;;7.30;78.10;;;;;;5095404;28;20028;-63
2020/12/25 00:37:59;;;;;;;4.93;0.95;;;7.30;78.00;;;;;;5094687;28;20391;-63
2020/12/25 00:40:25;;;;;;;3.90;1.63;;;7.30;77.90;;;;;;5095373;28;20070;-63
2020/12/25 00:42:50;;;;;;;5.88;1.05;;;7.30;77.60;;;;;;5094935;28;20056;-63
2020/12/25 00:45:18;;;;;;;10.32;2.05;;;7.30;77.40;;;;;;5095209;28;20096;-63
2020/12/25 00:47:44;;;;;;;7.07;1.38;;;7.40;77.30;;;;;;5095292;28;20020;-63
2020/12/25 00:50:10;;;;;;;8.18;2.58;;;7.30;77.10;;;;;;5093266;28;20028;-63
2020/12/25 00:52:36;;;;;;;11.27;1.85;;;7.40;77.00;;;;;;5095048;28;20483;-63
2020/12/25 00:55:03;;;;;;;10.27;1.23;;;7.30;76.80;;;;;;5095213;28;20024;-63
2020/12/25 00:57:30;;;;;;;7.65;1.25;;;7.40;76.70;;;;;;5092896;28;20028;-63
2020/12/25 01:00:04;;;;;;;7.53;1.20;;;7.40;76.40;;;;;;5094168;28;20097;-63
2020/12/25 01:02:30;;;;;;;17.52;1.40;;;7.40;76.30;;;;;;5094932;28;20046;-63
2020/12/25 01:04:56;;;;;;;17.70;1.58;;;7.50;76.10;;;;;;5094255;28;20509;-63
2020/12/25 01:07:22;;;;;;;3.35;1.25;;;7.50;75.90;;;;;;5094958;28;20024;-63
2020/12/25 01:09:47;;;;;;;7.28;1.52;;;7.40;76.10;;;;;;5094629;28;20031;-63
2020/12/25 01:12:13;;;;;;;6.88;1.13;;;7.50;76.50;;;;;;5094024;28;20399;-63
2020/12/25 01:14:38;;;;;;;2.80;0.70;;;7.50;76.60;;;;;;5094802;28;20391;-63
2020/12/25 01:17:04;;;;;;;6.65;1.13;;;7.50;76.60;;;;;;5090005;28;20025;-63
2020/12/25 01:19:30;;;;;;;4.45;0.68;;;7.50;76.90;;;;;;5084709;28;20028;-63
2020/12/25 01:21:55;;;;;;;13.38;1.38;;;7.40;76.90;;;;;;5084465;28;20028;-63
2020/12/25 01:24:21;;;;;;;13.00;1.08;;;7.40;76.90;;;;;;5094745;28;20027;-63
2020/12/25 01:26:47;;;;;;;2.50;0.82;;;7.40;77.00;;;;;;5093480;28;20032;-63
2020/12/25 01:29:12;;;;;;;6.93;1.10;;;7.40;77.10;;;;;;5094550;28;20032;-63
2020/12/25 01:31:38;;;;;;;5.25;0.70;;;7.40;77.00;;;;;;5094420;28;20463;-63
2020/12/25 01:34:04;;;;;;;2.05;0.77;;;7.40;76.90;;;;;;5092770;28;20039;-63
2020/12/25 01:36:30;;;;;;;1.35;0.77;;;7.40;77.00;;;;;;5094238;28;20016;-63
2020/12/25 01:38:56;;;;;;;6.93;1.98;;;7.40;77.10;;;;;;5094130;28;20032;-63
2020/12/25 01:41:22;;;;;;;8.35;0.93;;;7.40;77.10;;;;;;5093283;28;20031;-63
2020/12/25 01:43:48;;;;;;;5.47;0.95;;;7.50;76.90;;;;;;5094061;28;20055;-63
2020/12/25 01:46:14;;;;;;;1.83;0.60;;;7.50;76.70;;;;;;5093395;28;20034;-63
2020/12/25 01:48:41;;;;;;;1.38;0.68;;;7.50;76.60;;;;;;5094221;28;20051;-63
2020/12/25 01:51:08;;;;;;;1.88;0.68;;;7.60;76.60;;;;;;5094151;28;20046;-63
2020/12/25 01:53:35;;;;;;;1.75;0.50;;;7.60;76.10;;;;;;5093167;28;20040;-63
2020/12/25 01:56:02;;;;;;;0.82;0.50;;;7.60;75.90;;;;;;5093836;28;20115;-63
2020/12/25 01:58:30;;;;;;;0.88;0.68;;;7.70;75.50;;;;;;5093926;28;20039;-63
2020/12/25 02:00:57;;;;;;;1.25;0.63;;;7.70;75.10;;;;;;5093183;28;20383;-63
2020/12/25 02:03:23;;;;;;;3.03;1.08;;;7.70;75.00;;;;;;5093750;28;20028;-63
2020/12/25 02:05:48;;;;;;;2.30;0.57;;;7.70;74.80;;;;;;5093854;28;20027;-63
2020/12/25 02:08:15;;;;;;;3.63;0.55;;;7.70;74.80;;;;;;5093086;28;20379;-63
2020/12/25 02:10:42;;;;;;;2.25;0.80;;;7.70;74.70;;;;;;5093845;28;20028;-63
2020/12/25 02:13:08;;;;;;;5.38;0.85;;;7.70;74.30;;;;;;5093724;28;20051;-63
2020/12/25 02:15:35;;;;;;;0.75;0.50;;;7.70;74.20;;;;;;5092974;28;20371;-63
2020/12/25 02:18:01;;;;;;;3.65;0.73;;;7.70;74.10;;;;;;5093470;28;20028;-63
2020/12/25 02:20:27;;;;;;;4.43;0.68;;;7.70;73.60;;;;;;5093502;28;20019;-63
2020/12/25 02:22:52;;;;;;;4.22;0.93;;;7.60;74.00;;;;;;5092779;28;20404;-63
2020/12/25 02:25:18;;;;;;;2.45;0.80;;;7.60;73.90;;;;;;5093016;28;20104;-63
2020/12/25 02:27:44;;;;;;;5.70;0.88;;;7.60;74.00;;;;;;5093523;28;20028;-63
2020/12/25 02:30:09;;;;;;;5.25;1.25;;;7.50;74.30;;;;;;5092456;28;20052;-63
2020/12/25 02:32:36;;;;;;;2.50;1.65;;;7.40;74.70;;;;;;5093121;28;20169;-63
2020/12/25 02:35:03;;;;;;;5.15;0.65;;;7.30;74.90;;;;;;5093318;28;20020;-63
2020/12/25 02:37:28;;;;;;;11.05;1.10;;;7.30;75.00;;;;;;5092265;28;20421;-63
2020/12/25 02:39:54;;;;;;;4.70;1.10;;;7.30;75.00;;;;;;5093246;28;20020;-63
2020/12/25 02:42:20;;;;;;;9.73;3.28;;;7.30;75.00;;;;;;5092991;28;20028;-63
2020/12/25 02:44:45;;;;;;;10.15;1.30;;;7.30;75.00;;;;;;5092392;28;20101;-63
2020/12/25 02:47:11;;;;;;;2.13;0.77;;;7.30;74.90;;;;;;5093162;28;20028;-63
2020/12/25 02:49:38;;;;;;;9.40;1.45;;;7.30;74.90;;;;;;5092167;28;20023;-63
2020/12/25 02:52:04;;;;;;;9.50;1.00;;;7.30;74.90;;;;;;5092960;28;20062;-63
2020/12/25 02:54:30;;;;;;;5.30;0.90;;;7.30;74.90;;;;;;5092818;28;20042;-63
2020/12/25 02:56:56;;;;;;;10.85;1.50;;;7.30;74.90;;;;;;5092227;28;20452;-63
2020/12/25 02:59:22;;;;;;;3.03;1.00;;;7.30;74.80;;;;;;5093124;28;20028;-63
2020/12/25 03:01:49;;;;;;;10.95;1.02;;;7.30;74.80;;;;;;5092748;28;20194;-63
2020/12/25 03:04:14;;;;;;;4.18;0.75;;;7.40;74.80;;;;;;5092176;28;20032;-63
2020/12/25 03:06:40;;;;;;;13.05;1.98;;;7.40;74.70;;;;;;5092651;28;20415;-63
2020/12/25 03:09:06;;;;;;;7.95;1.20;;;7.40;74.70;;;;;;5093029;28;20043;-63
2020/12/25 03:11:31;;;;;;;6.68;1.00;;;7.40;74.70;;;;;;5091870;28;20028;-63
2020/12/25 03:13:57;;;;;;;5.75;0.95;;;7.40;74.60;;;;;;5092781;28;20040;-63
2020/12/25 03:16:22;;;;;;;5.60;1.10;;;7.40;74.50;;;;;;5092800;28;20403;-63
2020/12/25 03:18:48;;;;;;;4.30;1.15;;;7.40;74.50;;;;;;5091805;28;20032;-63
2020/12/25 03:21:14;;;;;;;3.83;0.88;;;7.40;74.50;;;;;;5092564;28;20034;-63
2020/12/25 03:23:39;;;;;;;8.02;0.73;;;7.30;74.30;;;;;;5092763;28;20017;-63
2020/12/25 03:26:05;;;;;;;4.10;0.65;;;7.30;74.30;;;;;;5092222;28;20086;-63
2020/12/25 03:28:31;;;;;;;1.05;0.60;;;7.40;74.30;;;;;;5092583;28;20020;-63
2020/12/25 03:30:56;;;;;;;2.90;0.90;;;7.30;74.40;;;;;;5092673;28;20540;-63
2020/12/25 03:33:22;;;;;;;4.20;0.70;;;7.30;74.40;;;;;;5091815;28;20479;-63
2020/12/25 03:35:48;;;;;;;7.32;1.02;;;7.30;74.40;;;;;;5092392;28;20028;-63
2020/12/25 03:38:13;;;;;;;4.75;1.27;;;7.30;74.30;;;;;;5096097;28;20024;-63
2020/12/25 03:40:39;;;;;;;8.10;1.58;;;7.30;74.30;;;;;;5096060;28;20399;-63
2020/12/25 03:43:05;;;;;;;4.50;1.00;;;7.30;74.30;;;;;;5096412;28;20089;-63
2020/12/25 03:45:32;;;;;;;4.45;1.05;;;7.30;74.30;;;;;;5096580;28;20467;-63
2020/12/25 03:48:00;;;;;;;7.32;1.20;;;7.20;74.30;;;;;;5095641;28;20028;-63
2020/12/25 03:50:27;;;;;;;5.80;1.33;;;7.20;74.40;;;;;;5096465;28;20058;-63
2020/12/25 03:52:53;;;;;;;0.95;0.73;;;7.20;74.50;;;;;;5095598;28;20044;-63
2020/12/25 03:55:18;;;;;;;5.07;1.08;;;7.10;74.50;;;;;;5096570;28;20467;-63
2020/12/25 03:57:44;;;;;;;4.18;1.10;;;7.10;74.50;;;;;;5096293;28;20471;-63
2020/12/25 04:00:10;;;;;;;4.88;0.90;;;7.10;74.40;;;;;;5095488;28;20115;-63
2020/12/25 04:02:35;;;;;;;9.32;0.77;;;7.10;74.20;;;;;;5096317;28;20391;-63
2020/12/25 04:05:01;;;;;;;7.38;1.20;;;7.10;74.10;;;;;;5095969;28;20023;-63
2020/12/25 04:07:27;;;;;;;4.88;1.00;;;7.20;74.10;;;;;;5095345;28;20364;-63
2020/12/25 04:09:52;;;;;;;4.40;0.98;;;7.10;74.00;;;;;;5095769;28;20032;-63
2020/12/25 04:12:18;;;;;;;11.27;1.80;;;7.10;74.30;;;;;;5096133;28;20047;-63
2020/12/25 04:14:43;;;;;;;8.50;1.30;;;7.00;74.10;;;;;;5095445;28;20406;-63
2020/12/25 04:17:09;;;;;;;13.85;1.98;;;7.00;74.10;;;;;;5095878;28;20024;-63
2020/12/25 04:19:35;;;;;;;3.95;1.27;;;7.00;74.20;;;;;;5095857;28;20024;-63
2020/12/25 04:22:00;;;;;;;5.32;1.25;;;7.00;74.30;;;;;;5094930;28;20037;-63
2020/12/25 04:24:26;;;;;;;12.23;1.83;;;6.90;74.60;;;;;;5096022;28;20115;-63
2020/12/25 04:26:52;;;;;;;13.70;1.80;;;6.90;74.70;;;;;;5095635;28;20092;-63
2020/12/25 04:29:17;;;;;;;11.82;1.20;;;6.80;74.60;;;;;;5095026;28;20035;-63
2020/12/25 04:31:43;;;;;;;15.82;2.05;;;6.80;74.60;;;;;;5095707;28;20051;-63
2020/12/25 04:34:09;;;;;;;14.15;2.03;;;6.80;74.60;;;;;;5095295;28;20391;-63
2020/12/25 04:36:35;;;;;;;5.90;1.55;;;6.80;74.60;;;;;;5095045;28;20028;-63
2020/12/25 04:39:01;;;;;;;5.30;1.33;;;6.80;74.60;;;;;;5095429;28;20395;-63
2020/12/25 04:41:30;;;;;;;6.10;1.33;;;6.80;74.60;;;;;;5095490;28;20027;-63
2020/12/25 04:43:58;;;;;;;7.82;1.20;;;6.80;74.60;;;;;;5094539;28;20097;-63
2020/12/25 04:46:23;;;;;;;6.35;1.55;;;6.80;74.50;;;;;;5095253;28;20031;-63
2020/12/25 04:48:49;;;;;;;9.70;1.52;;;6.80;74.40;;;;;;5094939;28;20027;-63
2020/12/25 04:51:15;;;;;;;12.90;1.27;;;6.80;74.40;;;;;;5094405;28;20035;-63
2020/12/25 04:53:41;;;;;;;8.50;1.27;;;6.80;74.50;;;;;;5095361;28;20118;-63
2020/12/25 04:56:07;;;;;;;5.97;1.40;;;6.80;74.20;;;;;;5094240;28;20032;-63
2020/12/25 04:58:33;;;;;;;13.95;1.20;;;6.80;74.20;;;;;;5095175;28;20081;-63
2020/12/25 05:01:06;;;;;;;10.40;1.50;;;6.90;74.30;;;;;;5095074;28;20024;-63
2020/12/25 05:03:36;;;;;;;7.25;1.50;;;6.90;74.30;;;;;;5094136;28;20502;-63
2020/12/25 05:06:18;;;;;;;9.43;1.98;;;6.90;74.30;;;;;;5095005;28;20451;-63
2020/12/25 05:08:49;;;;;;;7.97;1.90;;;6.80;74.30;;;;;;5095072;28;20086;-63
2020/12/25 05:11:17;;;;;;;7.80;1.38;;;6.90;74.60;;;;;;5094119;28;20028;-63
2020/12/25 05:13:47;;;;;;;6.55;1.35;;;6.80;75.10;;;;;;5094528;28;20062;-63
2020/12/25 05:16:14;;;;;;;17.15;1.42;;;6.80;75.60;;;;;;5095080;28;20209;-63
2020/12/25 05:18:42;;;;;;;4.78;1.20;;;6.70;75.80;;;;;;5094063;28;20027;-64
2020/12/25 05:21:13;;;;;;;6.60;1.35;;;6.70;76.00;;;;;;5094907;28;20028;-63
2020/12/25 05:23:41;;;;;;;9.18;1.30;;;6.70;75.90;;;;;;5094604;28;20055;-63
2020/12/25 05:26:08;;;;;;;6.43;1.33;;;6.70;75.90;;;;;;5093862;28;20440;-63
2020/12/25 05:28:40;;;;;;;7.80;1.20;;;6.70;76.50;;;;;;5094617;28;20035;-63
2020/12/25 05:31:07;;;;;;;7.43;1.38;;;6.80;75.80;;;;;;5094635;28;20019;-63
2020/12/25 05:33:33;;;;;;;5.20;1.30;;;6.80;75.70;;;;;;5093835;28;20122;-63
2020/12/25 05:36:03;;;;;;;11.35;1.35;;;6.80;75.60;;;;;;5094339;28;20043;-63
2020/12/25 05:38:29;;;;;;;7.55;1.42;;;6.80;76.10;;;;;;5093750;28;20364;-63
2020/12/25 05:40:55;;;;;;;8.75;1.23;;;6.80;75.40;;;;;;5094103;28;20049;-63
2020/12/25 05:43:21;;;;;;;10.07;1.33;;;6.80;75.30;;;;;;5094163;28;20405;-63
2020/12/25 05:45:47;;;;;;;9.43;2.20;;;6.80;75.20;;;;;;5093492;28;20457;-63
2020/12/25 05:48:14;;;;;;;8.90;1.40;;;6.80;75.20;;;;;;5094101;28;20038;-63
2020/12/25 05:50:40;;;;;;;7.68;1.48;;;6.80;75.10;;;;;;5094319;28;20028;-63
2020/12/25 05:53:06;;;;;;;12.68;1.60;;;6.80;75.10;;;;;;5093070;28;20122;-63
2020/12/25 05:55:32;;;;;;;8.68;1.17;;;6.80;75.10;;;;;;5094019;28;20093;-63
2020/12/25 05:57:59;;;;;;;4.55;1.08;;;6.80;75.10;;;;;;5093896;28;20032;-63
2020/12/25 06:00:26;;;;;;;10.38;1.85;;;6.80;75.10;;;;;;5092674;28;20387;-63
2020/12/25 06:02:54;;;;;;;10.20;1.67;;;6.80;75.00;;;;;;5093796;28;20050;-63
2020/12/25 06:05:21;;;;;;;11.77;1.58;;;6.70;74.80;;;;;;5093923;28;20024;-63
2020/12/25 06:07:49;;;;;;;9.75;2.03;;;6.70;74.60;;;;;;5092919;28;20028;-63
2020/12/25 06:10:17;;;;;;;12.68;1.60;;;6.80;74.40;;;;;;5093932;28;20024;-63
2020/12/25 06:12:43;;;;;;;9.60;1.70;;;6.80;74.20;;;;;;5093685;28;20028;-63
2020/12/25 06:15:18;;;;;;;12.63;1.90;;;6.80;74.00;;;;;;5092677;28;20483;-63
2020/12/25 06:18:09;;;;;;;11.50;1.50;;;6.80;73.80;;;;;;5093712;28;20078;-63
2020/12/25 06:20:39;;;;;;;11.38;1.30;;;6.80;74.10;;;;;;5092682;28;20027;-63
2020/12/25 06:23:07;;;;;;;10.85;1.92;;;6.80;74.50;;;;;;5093496;28;20455;-63
2020/12/25 06:25:32;;;;;;;9.27;1.48;;;6.80;74.70;;;;;;5093484;28;20028;-63
2020/12/25 06:28:00;;;;;;;11.30;1.35;;;6.80;74.90;;;;;;5092739;28;20039;-63
2020/12/25 06:30:30;;;;;;;8.30;1.60;;;6.80;75.20;;;;;;5093220;28;20024;-63
2020/12/25 06:32:57;;;;;;;0.47;0.47;;;6.90;75.40;;;;;;5093042;28;20502;-63
2020/12/25 06:35:40;;;;;;;9.55;1.20;;;6.90;75.80;;;;;;5092507;28;20043;-63
2020/12/25 06:38:14;;;;;;;6.97;1.23;;;6.90;75.90;;;;;;5093426;28;20435;-63
2020/12/25 06:40:40;;;;;;;2.38;1.05;;;6.90;75.80;;;;;;5093289;28;20032;-63
2020/12/25 06:43:16;;;;;;;9.85;0.93;;;7.00;76.00;;;;;;5092014;28;20058;-63
2020/12/25 06:45:44;;;;;;;8.80;1.27;;;7.00;76.10;;;;;;5093145;28;20069;-63
2020/12/25 06:48:15;;;;;;;2.55;0.43;;;7.00;76.00;;;;;;5093077;28;20435;-63
2020/12/25 06:50:50;;;;;;;7.00;1.50;;;7.00;76.10;;;;;;5092498;28;20047;-63
2020/12/25 06:53:36;;;;;;;10.70;1.33;;;7.00;76.00;;;;;;5092877;28;20036;-63
2020/12/25 06:56:08;;;;;;;7.30;1.17;;;7.00;75.90;;;;;;5090196;28;20030;-63
2020/12/25 06:58:42;;;;;;;5.63;1.10;;;7.00;76.10;;;;;;5081592;28;20032;-64
2020/12/25 07:01:08;;;;;;;6.28;0.90;;;7.00;76.00;;;;;;5086490;28;20016;-64
2020/12/25 07:03:38;;;;;;;10.45;1.15;;;6.90;76.00;;;;;;5091549;28;20032;-64
2020/12/25 07:06:05;;;;;;;2.30;0.90;;;7.00;75.80;;;;;;5086723;28;20088;-64
2020/12/25 07:08:33;;;;;;;5.20;1.33;;;7.00;75.90;;;;;;5092195;28;20028;-64
2020/12/25 07:11:04;;;;;;;8.10;1.38;;;7.00;75.90;;;;;;5091599;28;20024;-64
2020/12/25 07:13:31;;;;;;;7.60;1.00;;;6.90;76.40;;;;;;5089897;28;20032;-62
2020/12/25 07:15:57;;;;;;;3.92;0.95;;;6.90;76.70;;;;;;5092173;28;20024;-62
2020/12/25 07:18:23;;;;;;;12.02;1.20;;;6.80;77.10;;;;;;5085951;28;20031;-62
2020/12/25 07:20:49;;;;;;;4.47;0.75;;;6.70;77.70;;;;;;5085732;28;20472;-62
2020/12/25 07:23:15;;;;;;;8.55;1.58;;;6.60;78.10;;;;;;5073603;28;20028;-62
2020/12/25 07:25:42;;;;;;;4.15;0.68;;;6.70;78.60;;;;;;5091645;28;20031;-62
2020/12/25 07:28:08;;;;;;;9.93;1.27;;;6.50;79.10;;;;;;5092224;28;20032;-62
2020/12/25 07:30:34;;;;;;;3.17;0.63;;;6.50;79.40;;;;;;5091921;28;20432;-62
2020/12/25 07:33:03;;;;;;;4.53;1.42;;;6.40;79.50;;;;;;5081589;28;20040;-62
2020/12/25 07:35:28;;;;;;;11.30;1.17;;;6.50;79.60;;;;;;5091886;28;20070;-62
2020/12/25 07:37:55;;;;;;;6.47;1.45;;;6.40;79.70;;;;;;5091475;28;20028;-62
2020/12/25 07:40:20;;;;;;;10.00;1.48;;;6.40;79.50;;;;;;5086811;28;20100;-62
2020/12/25 07:42:49;;;;;;;10.80;1.02;;;6.40;79.30;;;;;;5091685;28;20118;-62
2020/12/25 07:45:16;;;;;;;4.60;0.90;;;6.40;79.00;;;;;;5087191;28;20736;-62
2020/12/25 07:47:42;;;;;;;6.97;1.30;;;6.50;78.90;;;;;;5087025;28;20036;-62
2020/12/25 07:50:07;;;;;;;6.70;1.33;;;6.50;78.80;;;;;;5091801;28;20093;-62
2020/12/25 07:52:33;;;;;;;5.97;1.30;;;6.40;78.90;;;;;;5087203;28;20028;-62
2020/12/25 07:54:58;;;;;;;4.88;1.25;;;6.40;78.80;;;;;;5091099;28;20039;-62
2020/12/25 07:57:24;;;;;;;4.25;0.90;;;6.50;78.80;;;;;;5092051;28;20086;-61
2020/12/25 07:59:50;;;;;;;6.28;1.25;;;6.40;78.50;;;;;;5091009;28;20035;-62
2020/12/25 08:02:18;;;;;;;3.50;0.88;;;6.50;78.30;;;;;;5091831;28;20066;-62
2020/12/25 08:04:45;;;;;;;5.88;2.05;;;6.50;78.10;;;;;;5091584;28;20028;-62
2020/12/25 08:07:12;;;;;;;7.00;1.77;;;6.50;77.90;;;;;;5088315;28;20043;-62
2020/12/25 08:09:39;;;;;;;7.05;1.40;;;6.50;77.70;;;;;;5091869;28;20038;-62
2020/12/25 08:12:10;;;;;;;2.50;1.00;;;6.50;77.50;;;;;;5091630;28;20036;-61
2020/12/25 08:14:44;;;;;;;6.53;1.33;;;6.60;77.30;;;;;;5091019;28;20032;-61
2020/12/25 08:17:12;;;;;;;11.48;1.80;;;6.60;77.00;;;;;;5091523;28;20038;-62
2020/12/25 08:19:38;;;;;;;3.15;0.75;;;6.60;76.80;;;;;;5091879;28;20039;-62
2020/12/25 08:22:04;;;;;;;6.47;1.50;;;6.60;76.60;;;;;;5091027;28;20032;-62
2020/12/25 08:24:31;;;;;;;3.75;1.40;;;6.70;76.50;;;;;;5094888;28;20055;-62
2020/12/25 08:27:01;;;;;;;3.53;1.05;;;6.70;76.30;;;;;;5094950;28;20036;-63
2020/12/25 08:29:31;;;;;;;9.32;1.25;;;6.70;76.00;;;;;;5094110;28;20111;-63
2020/12/25 08:32:09;;;;;;;1.23;0.60;;;6.80;75.90;;;;;;5094161;28;20024;-63
2020/12/25 08:34:36;;;;;;;9.02;3.30;;;6.80;75.80;;;;;;5094272;28;20035;-63
2020/12/25 08:37:07;;;;;;;10.77;1.50;;;6.70;75.60;;;;;;5094994;28;20016;-63
2020/12/25 08:39:33;;;;;;;4.63;1.10;;;6.80;75.50;;;;;;5081486;28;20028;-71
2020/12/25 08:41:59;;;;;;;3.20;0.85;;;6.80;75.40;;;;;;5099639;28;20035;-63
2020/12/25 08:44:25;;;;;;;2.70;1.17;;;6.80;75.40;;;;;;5090667;28;20151;-66
2020/12/25 08:47:04;;;;;;;6.05;1.88;;;6.80;75.30;;;;;;5079471;28;20446;-63
2020/12/25 08:49:29;;;;;;;5.30;1.50;;;6.80;75.20;;;;;;5075363;28;20032;-63
2020/12/25 08:51:55;;;;;;;6.93;2.00;;;6.80;75.10;;;;;;5085624;28;20035;-63
2020/12/25 08:54:25;;;;;;;4.22;1.80;;;6.80;75.40;;;;;;5093774;28;20028;-64
2020/12/25 08:56:51;;;;;;;4.72;1.70;;;6.80;75.30;;;;;;5077683;28;20037;-66
2020/12/25 08:59:23;;;;;;;4.93;1.48;;;6.80;75.10;;;;;;5074384;28;20074;-64
2020/12/25 09:01:50;;;;;;;9.13;1.52;;;6.90;75.10;;;;;;5073906;28;20029;-64
2020/12/25 09:04:20;;;;;;;6.40;1.65;;;6.90;75.00;;;;;;5083636;28;20360;-64
2020/12/25 09:06:49;;;;;;;1.42;1.30;;;6.90;74.90;;;;;;5074471;28;20078;-64
2020/12/25 09:09:15;;;;;;;8.50;1.45;;;6.90;74.90;;;;;;5074698;28;20475;-64
2020/12/25 09:11:40;;;;;;;1.35;0.68;;;6.80;74.90;;;;;;5075711;28;20028;-64
2020/12/25 09:14:06;;;;;;;8.07;1.10;;;6.90;75.00;;;;;;5073272;28;20048;-64
2020/12/25 09:16:32;;;;;;;3.28;1.00;;;6.80;75.00;;;;;;5078946;28;20028;-64
2020/12/25 09:18:59;;;;;;;9.13;1.35;;;6.90;75.10;;;;;;5076005;28;20028;-64
2020/12/25 09:21:27;;;;;;;1.88;1.00;;;6.80;75.10;;;;;;5077978;28;20032;-63
2020/12/25 09:23:54;;;;;;;4.50;0.90;;;6.80;75.20;;;;;;5076465;28;20138;-63
2020/12/25 09:26:19;;;;;;;4.03;0.90;;;6.90;75.40;;;;;;5073496;28;20040;-63
2020/12/25 09:28:45;;;;;;;1.58;0.80;;;6.80;75.50;;;;;;5073953;28;20036;-62
2020/12/25 09:31:13;;;;;;;1.20;0.82;;;6.80;75.80;;;;;;5084195;28;20040;-62
2020/12/25 09:33:39;;;;;;;4.75;1.08;;;6.80;76.00;;;;;;5072747;28;20033;-62
2020/12/25 09:36:09;;;;;;;2.80;0.85;;;6.70;76.20;;;;;;5072442;28;20037;-65
2020/12/25 09:38:43;;;;;;;6.90;1.60;;;6.70;76.50;;;;;;5071944;28;20119;-64
2020/12/25 09:41:09;;;;;;;10.68;1.13;;;6.70;76.80;;;;;;5084426;28;20028;-66
2020/12/25 09:43:35;;;;;;;2.05;0.73;;;6.70;77.00;;;;;;5092939;28;20151;-66
2020/12/25 09:46:03;;;;;;;3.63;1.45;;;6.70;77.30;;;;;;5090259;28;20032;-63
2020/12/25 09:48:28;;;;;;;4.93;2.03;;;6.60;77.40;;;;;;5073670;28;20032;-64
2020/12/25 09:50:54;;;;;;;10.23;1.83;;;6.60;77.60;;;;;;5089359;28;20106;-64
2020/12/25 09:53:20;;;;;;;0.52;0.35;;;6.60;78.00;;;;;;5086081;28;20028;-64
2020/12/25 09:55:48;;;;;;;2.08;0.75;;;6.60;78.00;;;;;;5091402;28;20463;-63
2020/12/25 09:58:13;;;;;;;7.25;0.77;;;6.60;78.20;;;;;;5081987;28;20035;-64
2020/12/25 10:00:39;;;;;;;0.90;0.32;;;6.60;78.30;;;;;;5074096;28;20028;-64
2020/12/25 10:03:05;;;;;;;5.22;1.40;;;6.60;78.50;;;;;;5090491;28;20035;-63
2020/12/25 10:05:30;;;;;;;2.50;0.90;;;6.70;78.60;;;;;;5092078;28;20027;-63
2020/12/25 10:07:56;;;;;;;4.57;1.00;;;6.70;78.60;;;;;;5089859;28;20032;-64
2020/12/25 10:10:23;;;;;;;3.53;1.10;;;6.80;78.50;;;;;;5089212;28;20028;-63
2020/12/25 10:12:50;;;;;;;12.18;1.45;;;6.90;78.40;;;;;;5082582;28;20044;-63
2020/12/25 10:15:16;;;;;;;7.13;1.73;;;6.90;78.30;;;;;;5086228;28;20054;-63
2020/12/25 10:17:42;;;;;;;5.85;1.05;;;7.00;78.20;;;;;;5076356;28;20032;-63
2020/12/25 10:20:08;;;;;;;2.33;0.60;;;7.10;78.10;;;;;;5073797;28;20086;-63
2020/12/25 10:22:34;;;;;;;6.28;1.20;;;7.10;77.90;;;;;;5077178;28;20032;-64
2020/12/25 10:24:59;;;;;;;4.32;0.98;;;7.20;77.80;;;;;;5074889;28;20062;-63
2020/12/25 10:27:25;;;;;;;2.78;0.70;;;7.20;77.70;;;;;;5081405;28;20074;-63
2020/12/25 10:29:52;;;;;;;6.00;1.40;;;7.30;77.70;;;;;;5084706;28;20028;-64
2020/12/25 10:32:17;;;;;;;20.05;1.75;;;7.30;77.60;;;;;;5092255;28;20028;-63
2020/12/25 10:34:43;;;;;;;12.73;1.48;;;7.40;77.50;;;;;;5091938;28;20043;-63
2020/12/25 10:37:09;;;;;;;13.13;1.15;;;7.40;77.40;;;;;;5092655;28;20031;-63
2020/12/25 10:39:34;;;;;;;5.22;1.20;;;7.50;77.40;;;;;;5092425;28;20107;-64
2020/12/25 10:42:00;;;;;;;3.83;0.98;;;7.50;77.50;;;;;;5079722;28;20086;-64
2020/12/25 10:44:26;;;;;;;6.22;1.23;;;7.50;77.40;;;;;;5075791;28;20460;-64
2020/12/25 10:46:57;;;;;;;13.15;1.35;;;7.60;77.50;;;;;;5071464;28;20024;-63
2020/12/25 10:49:23;;;;;;;6.28;1.17;;;7.70;77.60;;;;;;5072074;28;20028;-64
2020/12/25 10:51:48;;;;;;;7.65;1.00;;;7.70;77.50;;;;;;5075602;28;20035;-64
2020/12/25 10:54:14;;;;;;;5.88;1.13;;;7.80;77.40;;;;;;5072946;28;20040;-64
2020/12/25 10:56:40;;;;;;;6.78;0.90;;;7.80;77.40;;;;;;5075094;28;20024;-63
2020/12/25 10:59:05;;;;;;;5.43;0.93;;;7.80;77.10;;;;;;5083446;28;20395;-64
2020/12/25 11:01:31;;;;;;;2.30;0.73;;;7.90;76.90;;;;;;5073887;28;20544;-64
2020/12/25 11:03:57;;;;;;;6.10;0.95;;;7.90;76.60;;;;;;5080127;28;20058;-64
2020/12/25 11:06:49;;;;;;;5.78;1.00;;;7.90;76.30;;;;;;5078749;28;20032;-63
2020/12/25 11:09:15;;;;;;;8.27;1.13;;;7.90;76.20;;;;;;5068725;28;20439;-63
2020/12/25 11:11:41;;;;;;;3.70;1.00;;;7.90;76.00;;;;;;5073557;28;20093;-63
2020/12/25 11:14:08;;;;;;;3.88;0.95;;;8.00;75.80;;;;;;5071863;28;20468;-63
2020/12/25 11:16:35;;;;;;;3.25;0.63;;;8.00;75.70;;;;;;5071853;28;20020;-63
2020/12/25 11:19:03;;;;;;;3.13;1.10;;;8.00;75.60;;;;;;5076582;28;20438;-63
2020/12/25 11:21:32;;;;;;;6.75;1.05;;;8.10;75.60;;;;;;5071137;28;20435;-63
2020/12/25 11:23:59;;;;;;;6.90;1.17;;;8.10;75.50;;;;;;5082273;28;20130;-63
2020/12/25 11:26:27;;;;;;;4.40;0.70;;;8.10;75.30;;;;;;5084704;28;20111;-63
2020/12/25 11:28:57;;;;;;;2.95;0.63;;;8.20;75.20;;;;;;5071289;28;20391;-62
2020/12/25 11:31:24;;;;;;;1.38;0.63;;;8.20;75.10;;;;;;5072498;28;20529;-64
2020/12/25 11:33:50;;;;;;;3.83;0.93;;;8.20;74.90;;;;;;5072216;28;20041;-63
2020/12/25 11:36:24;;;;;;;0.30;0.30;;;8.20;74.60;;;;;;5076407;28;20483;-63
2020/12/25 11:38:50;;;;;;;;;;;8.20;74.40;;;;;;5088637;28;20028;-63
2020/12/25 11:41:18;;;;;;;4.88;0.68;;;8.20;74.60;;;;;;5080265;28;19908;-63
2020/12/25 11:43:44;;;;;;;8.02;0.95;;;8.30;74.00;;;;;;5078547;28;20076;-63
2020/12/25 11:46:10;;;;;;;3.80;0.77;;;8.30;73.80;;;;;;5080809;28;20464;-64
2020/12/25 11:48:37;;;;;;;6.05;0.77;;;8.30;73.70;;;;;;5086104;28;20086;-63
2020/12/25 11:51:04;;;;;;;1.83;0.80;;;8.30;73.60;;;;;;5078758;28;20056;-63
2020/12/25 11:53:29;;;;;;;4.15;1.10;;;8.30;73.40;;;;;;5083396;28;20040;-64
2020/12/25 11:55:55;;;;;;;1.80;0.85;;;8.40;73.10;;;;;;5080287;28;20646;-64
2020/12/25 11:58:21;;;;;;;3.63;0.70;;;8.40;72.80;;;;;;5078228;28;20067;-63
2020/12/25 12:00:46;;;;;;;2.63;0.90;;;8.40;72.50;;;;;;5074817;28;20024;-63
2020/12/25 12:03:12;;;;;;;3.30;1.40;;;8.50;72.30;;;;;;5080900;28;20028;-64
2020/12/25 12:05:44;;;;;;;3.92;0.82;;;8.50;72.20;;;;;;5090058;28;20482;-63
2020/12/25 12:08:11;;;;;;;3.08;1.70;;;8.50;71.70;;;;;;5078736;28;20143;-65
2020/12/25 12:10:38;;;;;;;6.00;2.92;;;8.50;71.70;;;;;;5073875;28;20107;-64
2020/12/25 12:13:05;;;;;;;3.08;0.80;;;8.50;71.60;;;;;;5075265;28;20040;-64
2020/12/25 12:15:38;;;;;;;5.15;1.00;;;8.60;71.40;;;;;;5075030;28;20035;-64
2020/12/25 12:18:05;;;;;;;0.88;0.65;;;8.50;71.10;;;;;;5075466;28;20073;-64
2020/12/25 12:20:31;;;;;;;1.83;0.85;;;8.50;71.20;;;;;;5076859;28;20106;-64
2020/12/25 12:22:57;;;;;;;8.57;1.10;;;8.50;71.10;;;;;;5074519;28;21254;-71
2020/12/25 12:25:23;;;;;;;6.43;0.88;;;8.50;71.00;;;;;;5076079;28;20039;-64
2020/12/25 12:27:49;;;;;;;5.15;1.10;;;8.50;71.00;;;;;;5077940;28;20021;-64
2020/12/25 12:30:15;;;;;;;4.00;0.90;;;8.50;70.80;;;;;;5081171;28;20038;-64
2020/12/25 12:32:41;;;;;;;3.55;0.90;;;8.50;70.40;;;;;;5078832;28;20496;-64
2020/12/25 12:35:06;;;;;;;3.53;0.90;;;8.50;70.20;;;;;;5073425;28;20111;-63
2020/12/25 12:37:32;;;;;;;2.58;0.98;;;8.50;70.20;;;;;;5073122;28;20028;-63
2020/12/25 12:39:58;;;;;;;2.90;0.80;;;8.60;70.20;;;;;;5073575;28;20136;-63
2020/12/25 12:42:24;;;;;;;2.92;0.65;;;8.60;70.00;;;;;;5073203;28;20458;-63
2020/12/25 12:44:50;;;;;;;1.05;0.52;;;8.60;69.80;;;;;;5078148;28;20052;-63
2020/12/25 12:47:16;;;;;;;2.10;0.60;;;8.60;69.60;;;;;;5075672;28;20032;-63
2020/12/25 12:49:42;;;;;;;6.07;0.98;;;8.60;69.80;;;;;;5077862;28;20032;-63
2020/12/25 12:52:08;;;;;;;6.45;0.70;;;8.70;70.10;;;;;;5081910;28;20101;-63
2020/12/25 12:54:36;;;;;;;4.03;0.65;;;8.70;70.40;;;;;;5075242;28;20480;-63